Time;durP1;ratioP1;P1;durP2;ratioP2;P2;SDS_P1;SDS_P2;PMS_P1;PMS_P2;Temp;Humidity;BMP_temperature;BMP_pressure;BME280_temperature;BME280_humidity;BME280_pressure;Samples;Min_cycle;Max_cycle;Signal;HPM_P1;HPM_P2
2023/01/16 00:02:17;;;;;;;6.77;3.87;;;;;;;4.97;nan;-23955.28;5034685;28;20349;-79
2023/01/16 00:04:42;;;;;;;7.53;4.93;;;;;;;4.72;nan;-23948.44;5033116;28;20183;-79
2023/01/16 00:07:08;;;;;;;10.77;4.80;;;;;;;4.87;nan;-23952.72;5034724;28;20191;-81
2023/01/16 00:09:34;;;;;;;11.57;5.83;;;;;;;4.97;nan;-23955.41;5033103;28;20190;-79
2023/01/16 00:11:59;;;;;;;10.90;5.00;;;;;;;4.87;nan;-23952.72;5034274;28;20183;-79
2023/01/16 00:14:25;;;;;;;9.47;5.77;;;;;;;4.77;nan;-23949.72;5033045;28;20172;-81
2023/01/16 00:16:50;;;;;;;8.83;4.90;;;;;;;4.71;nan;-23948.03;5034645;28;20179;-80
2023/01/16 00:19:16;;;;;;;8.63;4.83;;;;;;;5.09;nan;-23958.81;5034187;28;20215;-78
2023/01/16 00:21:41;;;;;;;12.33;4.90;;;;;;;5.05;nan;-23957.69;5034011;28;20233;-78
2023/01/16 00:24:07;;;;;;;12.50;4.27;;;;;;;5.10;nan;-23958.97;5033760;28;20175;-78
2023/01/16 00:26:33;;;;;;;11.23;4.97;;;;;;;4.95;nan;-23954.72;5033951;28;20189;-79
2023/01/16 00:28:58;;;;;;;8.10;4.23;;;;;;;4.87;nan;-23952.56;5032683;28;20282;-78
2023/01/16 00:31:27;;;;;;;9.40;5.03;;;;;;;4.51;nan;-23942.47;5032919;28;20572;-78
2023/01/16 00:33:52;;;;;;;6.93;4.23;;;;;;;4.58;nan;-23944.31;5033887;28;20187;-78
2023/01/16 00:36:18;;;;;;;13.47;5.97;;;;;;;4.61;nan;-23945.16;5034235;28;20228;-79
2023/01/16 00:38:43;;;;;;;10.97;4.87;;;;;;;4.66;nan;-23946.59;5048388;28;20223;-78
2023/01/16 00:41:09;;;;;;;10.47;5.90;;;;;;;4.55;nan;-23943.59;5032523;28;20184;-78
2023/01/16 00:43:34;;;;;;;7.07;4.17;;;;;;;4.38;nan;-23938.91;5033732;28;20236;-78
2023/01/16 00:46:00;;;;;;;8.70;4.73;;;;;;;4.41;nan;-23939.75;5032533;28;20186;-79
2023/01/16 00:48:25;;;;;;;8.70;4.93;;;;;;;4.20;nan;-23933.63;5032559;28;20199;-78
2023/01/16 00:50:51;;;;;;;5.77;3.53;;;;;;;4.37;nan;-23938.47;5032944;28;20187;-80
2023/01/16 00:53:16;;;;;;;9.20;4.93;;;;;;;4.13;nan;-23931.66;5048842;28;20244;-79
2023/01/16 00:55:42;;;;;;;6.37;4.73;;;;;;;4.50;nan;-23942.19;5033370;28;20230;-79
2023/01/16 00:58:08;;;;;;;7.27;3.93;;;;;;;4.47;nan;-23941.31;5033203;28;20287;-79
2023/01/16 01:00:35;;;;;;;12.10;4.77;;;;;;;4.52;nan;-23942.59;5033131;28;20555;-79
2023/01/16 01:03:01;;;;;;;10.87;4.50;;;;;;;4.40;nan;-23939.34;5025185;28;20230;-79
2023/01/16 01:05:27;;;;;;;14.50;5.13;;;;;;;4.05;nan;-23929.50;5012150;28;20227;-79
2023/01/16 01:07:52;;;;;;;7.43;5.17;;;;;;;3.83;nan;-23923.25;5013477;28;20232;-79
2023/01/16 01:10:17;;;;;;;10.50;4.27;;;;;;;3.94;nan;-23926.53;4995830;28;20183;-79
2023/01/16 01:12:43;;;;;;;12.27;5.13;;;;;;;4.22;nan;-23934.34;5013849;28;20187;-79
2023/01/16 01:15:09;;;;;;;11.10;6.37;;;;;;;4.31;nan;-23936.91;5020477;28;20180;-78
2023/01/16 01:17:34;;;;;;;7.40;4.83;;;;;;;4.17;nan;-23932.94;5025146;28;20188;-80
2023/01/16 01:20:00;;;;;;;10.80;5.90;;;;;;;4.47;nan;-23941.19;4997559;28;20184;-78
2023/01/16 01:22:26;;;;;;;8.37;5.80;;;;;;;4.61;nan;-23945.16;4995840;28;20257;-78
2023/01/16 01:24:52;;;;;;;7.60;5.13;;;;;;;4.61;nan;-23945.31;5013049;28;20186;-79
2023/01/16 01:27:18;;;;;;;7.57;4.93;;;;;;;4.50;nan;-23942.19;5012836;28;20733;-79
2023/01/16 01:29:43;;;;;;;9.80;5.20;;;;;;;4.57;nan;-23944.19;5013257;28;20180;-80
2023/01/16 01:32:09;;;;;;;10.93;5.97;;;;;;;4.28;nan;-23936.06;4995324;28;20565;-79
2023/01/16 01:34:34;;;;;;;8.37;5.57;;;;;;;4.31;nan;-23936.91;5012922;28;20205;-80
2023/01/16 01:37:05;;;;;;;8.53;4.80;;;;;;;3.90;nan;-23925.22;5012764;28;20199;-78
2023/01/16 01:39:30;;;;;;;9.13;5.10;;;;;;;3.85;nan;-23923.94;5020177;28;20191;-78
2023/01/16 01:42:41;;;;;;;10.33;5.27;;;;;;;3.90;nan;-23925.22;5012413;28;20184;-78
2023/01/16 01:44:41;;;;;;;12.10;6.03;;;;;;;4.23;nan;-23934.50;5012568;28;20640;-79
2023/01/16 01:47:07;;;;;;;11.50;5.17;;;;;;;4.15;nan;-23932.22;5011371;28;20238;-79
2023/01/16 01:49:33;;;;;;;9.83;5.23;;;;;;;4.23;nan;-23934.63;5011680;28;20172;-79
2023/01/16 01:52:02;;;;;;;9.93;6.00;;;;;;;4.27;nan;-23935.63;4994917;28;20662;-79
2023/01/16 01:54:36;;;;;;;17.30;6.10;;;;;;;4.38;nan;-23938.91;5012303;28;20176;-79
2023/01/16 01:57:22;;;;;;;9.53;6.17;;;;;;;4.39;nan;-23939.06;5013098;28;20165;-79
2023/01/16 02:00:03;;;;;;;8.90;5.67;;;;;;;4.10;nan;-23930.94;5011095;28;20180;-79
2023/01/16 02:02:35;;;;;;;9.43;5.20;;;;;;;4.04;nan;-23929.09;5020882;28;20642;-79
2023/01/16 02:05:04;;;;;;;15.07;6.53;;;;;;;4.27;nan;-23935.78;5032276;28;20190;-78
2023/01/16 02:07:29;;;;;;;14.00;5.80;;;;;;;4.50;nan;-23942.19;5031641;28;20294;-78
2023/01/16 02:10:21;;;;;;;12.93;6.80;;;;;;;4.77;nan;-23949.88;5032490;28;20617;-79
2023/01/16 02:12:48;;;;;;;8.37;4.70;;;;;;;4.23;nan;-23934.63;5031248;28;20187;-78
2023/01/16 02:15:13;;;;;;;12.37;5.67;;;;;;;4.41;nan;-23939.75;5047434;28;20183;-78
2023/01/16 02:20:34;;;;;;;16.43;6.33;;;;;;;4.20;nan;-23933.78;5031498;28;20589;-79
2023/01/16 02:23:24;;;;;;;10.17;6.27;;;;;;;4.53;nan;-23942.91;5030483;28;20569;-78
2023/01/16 02:26:18;;;;;;;9.47;5.27;;;;;;;4.62;nan;-23945.47;5012068;28;20180;-79
2023/01/16 02:29:14;;;;;;;12.60;6.90;;;;;;;4.64;nan;-23946.16;5011898;28;20266;-79
2023/01/16 02:32:03;;;;;;;10.27;5.57;;;;;;;4.69;nan;-23947.59;5010593;28;20619;-78
2023/01/16 02:35:01;;;;;;;10.33;6.57;;;;;;;4.74;nan;-23949.00;5026844;28;20285;-78
2023/01/16 02:37:54;;;;;;;15.40;9.07;;;;;;;4.88;nan;-23953.00;4996809;28;20198;-79
2023/01/16 02:40:43;;;;;;;12.03;6.23;;;;;;;4.77;nan;-23949.72;5011950;28;20172;-79
2023/01/16 02:43:52;;;;;;;8.07;6.43;;;;;;;4.91;nan;-23953.72;5011686;28;20539;-79
2023/01/16 02:46:29;;;;;;;12.33;5.80;;;;;;;4.82;nan;-23951.16;4950912;29;20213;-79
2023/01/16 02:49:10;;;;;;;10.50;5.83;;;;;;;4.83;nan;-23951.56;5014957;28;20301;-79
2023/01/16 02:52:05;;;;;;;10.60;5.83;;;;;;;4.85;nan;-23952.00;5021889;28;20191;-79
2023/01/16 02:54:45;;;;;;;10.70;6.10;;;;;;;4.82;nan;-23951.28;5031735;28;20190;-79
2023/01/16 02:57:20;;;;;;;9.50;6.33;;;;;;;4.79;nan;-23950.28;5030971;28;20792;-79
2023/01/16 02:59:47;;;;;;;13.73;7.13;;;;;;;4.49;nan;-23941.75;5046932;28;20732;-78
2023/01/16 03:02:13;;;;;;;9.70;6.97;;;;;;;4.29;nan;-23936.34;5035485;28;20779;-79
2023/01/16 03:04:42;;;;;;;10.27;5.93;;;;;;;4.35;nan;-23937.91;5034204;28;20266;-78
2023/01/16 03:07:14;;;;;;;8.93;5.50;;;;;;;4.82;nan;-23951.16;5035482;28;20175;-78
2023/01/16 03:10:10;;;;;;;13.43;5.30;;;;;;;4.58;nan;-23944.47;5034225;28;20280;-79
2023/01/16 03:13:04;;;;;;;12.77;6.87;;;;;;;4.83;nan;-23951.44;5034472;28;20237;-78
2023/01/16 03:16:00;;;;;;;15.10;6.90;;;;;;;4.80;nan;-23950.56;5033779;28;20183;-79
2023/01/16 03:18:47;;;;;;;12.83;5.93;;;;;;;4.81;nan;-23951.00;5035651;28;20170;-79
2023/01/16 03:21:37;;;;;;;7.77;5.93;;;;;;;4.83;nan;-23951.56;5033991;28;20171;-79
2023/01/16 03:24:05;;;;;;;11.00;6.23;;;;;;;4.75;nan;-23949.31;5035122;28;20688;-79
2023/01/16 03:26:42;;;;;;;12.77;6.27;;;;;;;4.78;nan;-23950.16;5034664;28;20179;-79
2023/01/16 03:29:29;;;;;;;13.80;6.43;;;;;;;4.53;nan;-23943.03;5033701;28;20633;-79
2023/01/16 03:32:03;;;;;;;12.23;6.03;;;;;;;4.53;nan;-23942.91;5033938;28;20658;-79
2023/01/16 03:34:36;;;;;;;10.90;6.23;;;;;;;4.42;nan;-23940.03;5035447;28;20261;-79
2023/01/16 03:37:07;;;;;;;11.60;6.07;;;;;;;4.82;nan;-23951.16;5014550;28;20175;-79
2023/01/16 03:39:39;;;;;;;15.00;5.80;;;;;;;4.72;nan;-23948.31;5015454;28;20172;-79
2023/01/16 03:42:10;;;;;;;10.03;5.93;;;;;;;4.77;nan;-23949.72;5015037;28;20172;-78
2023/01/16 03:44:42;;;;;;;14.07;6.47;;;;;;;4.78;nan;-23950.00;5027350;28;20200;-78
2023/01/16 03:47:15;;;;;;;13.30;6.73;;;;;;;4.49;nan;-23941.75;5022297;28;20604;-78
2023/01/16 03:49:47;;;;;;;15.87;6.43;;;;;;;4.82;nan;-23951.28;5015275;28;20160;-79
2023/01/16 03:52:15;;;;;;;14.53;6.03;;;;;;;4.87;nan;-23952.72;5015344;28;20164;-79
2023/01/16 03:54:50;;;;;;;10.77;6.20;;;;;;;4.84;nan;-23951.72;5013618;28;20654;-79
2023/01/16 03:57:29;;;;;;;10.53;6.00;;;;;;;4.66;nan;-23946.59;5014365;28;20270;-78
2023/01/16 03:59:55;;;;;;;11.90;6.13;;;;;;;4.58;nan;-23944.31;5014038;28;20217;-78
2023/01/16 04:02:25;;;;;;;13.90;7.37;;;;;;;4.87;nan;-23952.56;5016577;28;20718;-79
2023/01/16 04:05:08;;;;;;;11.43;5.83;;;;;;;4.46;nan;-23941.03;5034143;28;20175;-79
2023/01/16 04:07:48;;;;;;;10.60;6.20;;;;;;;4.73;nan;-23948.72;5034081;28;20203;-79
2023/01/16 04:10:21;;;;;;;16.70;7.10;;;;;;;4.88;nan;-23953.00;5033872;28;20654;-78
2023/01/16 04:12:57;;;;;;;16.63;6.80;;;;;;;4.73;nan;-23948.72;5033090;28;20183;-78
2023/01/16 04:15:25;;;;;;;15.87;6.17;;;;;;;5.19;nan;-23961.66;5034874;28;20190;-78
2023/01/16 04:17:52;;;;;;;18.87;7.97;;;;;;;5.21;nan;-23962.09;5034354;28;20262;-79
2023/01/16 04:20:19;;;;;;;11.80;5.43;;;;;;;5.12;nan;-23959.53;5033624;28;20240;-79
2023/01/16 04:22:49;;;;;;;10.17;5.47;;;;;;;4.86;nan;-23952.28;5028671;28;20265;-79
2023/01/16 04:25:16;;;;;;;8.80;4.83;;;;;;;4.73;nan;-23948.59;5026788;28;20179;-79
2023/01/16 04:27:41;;;;;;;10.47;6.17;;;;;;;5.09;nan;-23958.69;5027846;28;20261;-79
2023/01/16 04:30:08;;;;;;;11.00;5.93;;;;;;;4.72;nan;-23948.31;5027839;28;20187;-79
2023/01/16 04:32:33;;;;;;;13.53;5.87;;;;;;;5.25;nan;-23963.38;5027189;28;20176;-79
2023/01/16 04:34:58;;;;;;;11.17;4.93;;;;;;;4.83;nan;-23951.44;5026026;28;20190;-79
2023/01/16 04:37:24;;;;;;;12.70;5.93;;;;;;;5.11;nan;-23959.41;5028127;28;20188;-79
2023/01/16 04:39:50;;;;;;;11.40;5.47;;;;;;;5.29;nan;-23964.50;5027827;28;20206;-79
2023/01/16 04:42:15;;;;;;;16.30;6.73;;;;;;;4.94;nan;-23954.41;5026545;28;20190;-79
2023/01/16 04:44:42;;;;;;;20.33;7.03;;;;;;;4.10;nan;-23930.94;5026099;28;20183;-79
2023/01/16 04:47:08;;;;;;;12.37;6.20;;;;;;;4.35;nan;-23938.06;5027318;28;20943;-79
2023/01/16 04:49:33;;;;;;;10.40;6.07;;;;;;;4.57;nan;-23944.19;5026516;28;20310;-79
2023/01/16 04:51:58;;;;;;;10.73;5.97;;;;;;;4.67;nan;-23946.88;5027578;28;20194;-79
2023/01/16 04:54:24;;;;;;;11.50;5.57;;;;;;;4.91;nan;-23953.72;5025007;28;20202;-79
2023/01/16 04:56:50;;;;;;;13.87;6.23;;;;;;;4.88;nan;-23952.84;5026130;28;20195;-79
2023/01/16 04:59:18;;;;;;;17.90;5.83;;;;;;;4.98;nan;-23955.56;5026378;28;20185;-79
2023/01/16 05:01:44;;;;;;;13.03;5.83;;;;;;;4.59;nan;-23944.59;5025098;28;20187;-80
2023/01/16 05:04:11;;;;;;;16.80;6.13;;;;;;;5.07;nan;-23958.13;5040850;28;20198;-80
2023/01/16 05:06:37;;;;;;;10.80;5.07;;;;;;;5.05;nan;-23957.53;5024642;28;20186;-80
2023/01/16 05:09:03;;;;;;;9.47;5.43;;;;;;;4.69;nan;-23947.59;5026846;28;20203;-80
2023/01/16 05:11:29;;;;;;;18.27;7.90;;;;;;;4.98;nan;-23955.56;5027288;28;20194;-80
2023/01/16 05:13:54;;;;;;;9.47;4.83;;;;;;;5.00;nan;-23956.25;5026868;28;20179;-80
2023/01/16 05:16:20;;;;;;;11.10;5.93;;;;;;;4.94;nan;-23954.56;5029255;28;20301;-80
2023/01/16 05:18:45;;;;;;;9.67;5.73;;;;;;;5.07;nan;-23958.25;5028802;28;20657;-79
2023/01/16 05:21:11;;;;;;;9.97;5.77;;;;;;;5.07;nan;-23958.13;5032009;28;20191;-79
2023/01/16 05:23:37;;;;;;;15.40;6.90;;;;;;;4.78;nan;-23950.00;5033133;28;20198;-80
2023/01/16 05:26:03;;;;;;;14.27;6.63;;;;;;;5.13;nan;-23959.81;5031488;28;20241;-79
2023/01/16 05:28:29;;;;;;;12.93;6.10;;;;;;;5.07;nan;-23958.13;5032743;28;20196;-79
2023/01/16 05:30:55;;;;;;;14.27;6.37;;;;;;;5.26;nan;-23963.53;5031201;28;20202;-79
2023/01/16 05:33:20;;;;;;;12.97;6.63;;;;;;;5.33;nan;-23965.50;5032296;28;20205;-79
2023/01/16 05:35:46;;;;;;;13.77;6.47;;;;;;;5.23;nan;-23962.81;5047678;28;20179;-80
2023/01/16 05:38:13;;;;;;;15.80;7.00;;;;;;;5.08;nan;-23958.53;5032464;28;20175;-79
2023/01/16 05:40:38;;;;;;;24.53;6.33;;;;;;;5.17;nan;-23960.97;5032525;28;20622;-79
2023/01/16 05:43:04;;;;;;;12.53;5.87;;;;;;;5.21;nan;-23962.09;5032691;28;20179;-79
2023/01/16 05:45:29;;;;;;;13.07;6.23;;;;;;;5.26;nan;-23963.66;5032343;28;20205;-80
2023/01/16 05:47:55;;;;;;;13.03;7.03;;;;;;;5.32;nan;-23965.38;5047479;28;20215;-79
2023/01/16 05:50:20;;;;;;;13.60;6.77;;;;;;;5.31;nan;-23964.94;5029482;28;20191;-80
2023/01/16 05:52:46;;;;;;;13.17;6.60;;;;;;;5.19;nan;-23961.66;5034256;28;20642;-79
2023/01/16 05:55:11;;;;;;;10.47;5.63;;;;;;;5.14;nan;-23960.09;5030597;28;20185;-80
2023/01/16 05:57:36;;;;;;;12.33;6.80;;;;;;;5.18;nan;-23961.25;5048041;28;20186;-80
2023/01/16 06:00:04;;;;;;;11.37;5.77;;;;;;;4.90;nan;-23953.44;5050251;28;20645;-80
2023/01/16 06:02:30;;;;;;;15.23;6.90;;;;;;;4.84;nan;-23951.72;5051232;28;20241;-81
2023/01/16 06:04:55;;;;;;;16.20;7.70;;;;;;;5.20;nan;-23961.81;5050321;28;20544;-80
2023/01/16 06:07:21;;;;;;;15.57;6.80;;;;;;;5.06;nan;-23957.97;5051584;28;20316;-80
2023/01/16 06:09:46;;;;;;;19.40;6.60;;;;;;;5.16;nan;-23960.81;5050529;28;20201;-81
2023/01/16 06:12:17;;;;;;;12.97;6.53;;;;;;;5.12;nan;-23959.53;5052002;28;20178;-80
2023/01/16 06:14:42;;;;;;;11.80;6.93;;;;;;;4.77;nan;-23949.88;5050749;28;20581;-77
2023/01/16 06:17:08;;;;;;;14.67;7.60;;;;;;;5.20;nan;-23961.81;5067112;28;20202;-78
2023/01/16 06:19:33;;;;;;;14.97;6.83;;;;;;;5.41;nan;-23967.66;5057060;28;20250;-78
2023/01/16 06:21:59;;;;;;;15.80;7.43;;;;;;;5.25;nan;-23963.25;5051900;28;20181;-77
2023/01/16 06:24:24;;;;;;;16.73;6.73;;;;;;;5.31;nan;-23964.94;5052137;28;20183;-78
2023/01/16 06:26:50;;;;;;;12.33;6.80;;;;;;;5.29;nan;-23964.50;5050624;28;20558;-82
2023/01/16 06:29:15;;;;;;;12.00;6.30;;;;;;;5.40;nan;-23967.38;5050187;28;20270;-80
2023/01/16 06:31:40;;;;;;;17.70;7.63;;;;;;;5.23;nan;-23962.66;5052344;28;20533;-76
2023/01/16 06:34:06;;;;;;;13.70;6.70;;;;;;;5.42;nan;-23967.94;5040516;28;20558;-79
2023/01/16 06:36:32;;;;;;;10.77;5.87;;;;;;;5.19;nan;-23961.66;5036177;28;20507;-80
2023/01/16 06:38:57;;;;;;;11.87;6.77;;;;;;;5.23;nan;-23962.81;5037754;28;20194;-79
2023/01/16 06:41:23;;;;;;;18.50;7.47;;;;;;;5.13;nan;-23959.97;5051358;28;20185;-79
2023/01/16 06:43:48;;;;;;;16.80;7.53;;;;;;;5.17;nan;-23960.97;5039962;28;20182;-80
2023/01/16 06:46:14;;;;;;;19.07;7.10;;;;;;;5.25;nan;-23963.38;5038178;28;20194;-81
2023/01/16 06:48:41;;;;;;;19.57;8.70;;;;;;;5.27;nan;-23963.81;5037899;28;20198;-80
2023/01/16 06:51:06;;;;;;;13.97;6.83;;;;;;;5.30;nan;-23964.81;5037816;28;20258;-80
2023/01/16 06:53:32;;;;;;;15.17;8.47;;;;;;;5.01;nan;-23956.41;5036314;28;20175;-80
2023/01/16 06:55:57;;;;;;;11.83;6.30;;;;;;;5.55;nan;-23971.63;5037580;28;20187;-79
2023/01/16 06:58:22;;;;;;;17.20;7.80;;;;;;;5.51;nan;-23970.47;5037962;28;20175;-79
2023/01/16 07:00:51;;;;;;;12.50;6.77;;;;;;;5.09;nan;-23958.69;5037484;28;20688;-79
2023/01/16 07:03:17;;;;;;;11.13;5.93;;;;;;;5.57;nan;-23972.34;5037811;28;20239;-79
2023/01/16 07:05:45;;;;;;;19.43;8.53;;;;;;;5.43;nan;-23968.22;5036249;28;20606;-79
2023/01/16 07:08:11;;;;;;;13.27;6.07;;;;;;;5.46;nan;-23969.22;5037448;28;20203;-79
2023/01/16 07:10:37;;;;;;;13.67;7.90;;;;;;;5.26;nan;-23963.53;5037738;28;20178;-78
2023/01/16 07:13:02;;;;;;;14.83;7.57;;;;;;;5.68;nan;-23975.47;5036160;28;20187;-78
2023/01/16 07:23:49;;;;;;;10.47;6.33;;;;;;;4.74;nan;-23948.88;5037699;28;20252;-79
2023/01/16 07:26:18;;;;;;;10.30;7.00;;;;;;;5.04;nan;-23957.25;5037818;28;20173;-79
2023/01/16 07:28:44;;;;;;;12.37;6.77;;;;;;;5.28;nan;-23964.09;5037398;28;20253;-80
2023/01/16 07:31:09;;;;;;;11.97;6.10;;;;;;;4.99;nan;-23955.84;5035985;28;20183;-79
2023/01/16 07:33:35;;;;;;;10.27;6.13;;;;;;;5.33;nan;-23965.50;5037599;28;20179;-78
2023/01/16 07:36:00;;;;;;;18.30;6.03;;;;;;;5.46;nan;-23969.22;5035951;28;20185;-79
2023/01/16 07:38:26;;;;;;;11.97;5.83;;;;;;;5.69;nan;-23975.59;5037335;28;20172;-77
2023/01/16 07:40:51;;;;;;;12.17;6.10;;;;;;;5.46;nan;-23969.06;5037581;28;20631;-79
2023/01/16 07:43:16;;;;;;;8.37;5.57;;;;;;;5.87;nan;-23980.59;5036226;28;20538;-80
2023/01/16 07:45:43;;;;;;;13.27;5.93;;;;;;;5.60;nan;-23973.03;5035836;28;20186;-79
2023/01/16 07:48:09;;;;;;;9.27;5.20;;;;;;;5.05;nan;-23957.53;5033032;28;20222;-79
2023/01/16 07:50:34;;;;;;;9.57;5.10;;;;;;;5.56;nan;-23971.91;5033737;28;20646;-79
2023/01/16 07:52:59;;;;;;;11.53;5.97;;;;;;;5.24;nan;-23963.09;5034179;28;20282;-78
2023/01/16 07:55:25;;;;;;;12.27;5.83;;;;;;;5.12;nan;-23959.53;5033773;28;20179;-79
2023/01/16 07:57:50;;;;;;;9.90;6.20;;;;;;;4.94;nan;-23954.56;5032419;28;20242;-79
2023/01/16 08:00:16;;;;;;;12.37;6.13;;;;;;;5.40;nan;-23967.38;5032851;28;20268;-79
2023/01/16 08:02:42;;;;;;;12.07;5.93;;;;;;;5.50;nan;-23970.22;5031628;28;20234;-79
2023/01/16 08:05:09;;;;;;;14.23;7.03;;;;;;;5.68;nan;-23975.31;5033599;28;20686;-80
2023/01/16 08:07:34;;;;;;;16.33;5.87;;;;;;;5.54;nan;-23971.34;5033768;28;20198;-79
2023/01/16 08:10:00;;;;;;;13.60;7.33;;;;;;;5.78;nan;-23978.16;5032062;28;20191;-80
2023/01/16 08:12:25;;;;;;;19.30;4.93;;;;;;;5.84;nan;-23979.72;5034179;28;20171;-79
2023/01/16 08:14:51;;;;;;;12.70;6.43;;;;;;;5.73;nan;-23976.88;5032740;28;20710;-80
2023/01/16 08:17:16;;;;;;;12.87;7.07;;;;;;;5.72;nan;-23976.47;5032069;28;20175;-80
2023/01/16 08:19:42;;;;;;;12.30;6.27;;;;;;;5.69;nan;-23975.59;5032274;28;20194;-81
2023/01/16 08:22:07;;;;;;;15.77;5.33;;;;;;;5.48;nan;-23969.78;5032498;28;20536;-78
2023/01/16 08:24:32;;;;;;;13.60;6.00;;;;;;;4.84;nan;-23951.84;5032066;28;20211;-79
2023/01/16 08:26:58;;;;;;;11.13;6.37;;;;;;;5.42;nan;-23968.06;5032757;28;20191;-79
2023/01/16 08:29:24;;;;;;;14.40;6.07;;;;;;;5.10;nan;-23959.13;5032931;28;20704;-79
2023/01/16 08:31:50;;;;;;;16.03;5.40;;;;;;;5.53;nan;-23971.06;5012648;28;20180;-79
2023/01/16 08:34:16;;;;;;;12.63;4.97;;;;;;;5.37;nan;-23966.50;5017161;28;20199;-79
2023/01/16 08:36:41;;;;;;;10.70;6.23;;;;;;;5.80;nan;-23978.72;5033564;28;20661;-78
2023/01/16 08:39:10;;;;;;;10.67;4.90;;;;;;;5.82;nan;-23979.31;5031518;28;20183;-79
2023/01/16 08:52:38;;;;;;;12.77;6.10;;;;;;;6.42;nan;-23996.06;5034910;28;20174;-80
2023/01/16 08:55:05;;;;;;;14.87;6.30;;;;;;;5.44;nan;-23968.63;5031574;28;20182;-79
2023/01/16 08:57:31;;;;;;;13.30;6.27;;;;;;;5.76;nan;-23977.75;5035292;28;20180;-82
2023/01/16 08:59:57;;;;;;;14.90;6.30;;;;;;;5.54;nan;-23971.34;5034415;28;20167;-79
2023/01/16 09:02:23;;;;;;;13.97;5.43;;;;;;;5.69;nan;-23975.75;5030745;28;20262;-80
2023/01/16 09:04:49;;;;;;;19.90;5.90;;;;;;;5.87;nan;-23980.72;5033651;28;20589;-81
2023/01/16 09:07:15;;;;;;;11.17;5.90;;;;;;;5.87;nan;-23980.72;5030488;28;20189;-80
2023/01/16 09:09:41;;;;;;;15.83;5.70;;;;;;;5.75;nan;-23977.44;5030963;28;20216;-79
2023/01/16 09:14:57;;;;;;;11.27;6.23;;;;;;;6.37;nan;-23994.66;5032610;28;20270;-80
2023/01/16 09:17:24;;;;;;;14.33;6.80;;;;;;;5.92;nan;-23982.16;5030953;28;20175;-80
2023/01/16 09:19:50;;;;;;;14.50;7.13;;;;;;;6.37;nan;-23994.66;5032094;28;20627;-80
2023/01/16 09:22:15;;;;;;;12.90;5.87;;;;;;;6.47;nan;-23997.47;5031601;28;20190;-79
2023/01/16 09:24:41;;;;;;;11.00;6.03;;;;;;;6.19;nan;-23989.69;5033333;28;20242;-79
2023/01/16 09:27:06;;;;;;;7.80;4.90;;;;;;;5.92;nan;-23982.16;5030374;28;20183;-81
2023/01/16 09:29:32;;;;;;;10.03;5.17;;;;;;;6.53;nan;-23999.31;5033004;28;20256;-79
2023/01/16 09:31:58;;;;;;;12.90;6.33;;;;;;;6.54;nan;-23999.63;5032087;28;20184;-80
2023/01/16 09:34:24;;;;;;;10.33;5.13;;;;;;;6.40;nan;-23995.63;5033389;28;20175;-80
2023/01/16 09:36:50;;;;;;;11.33;5.73;;;;;;;6.10;nan;-23987.13;5032533;28;20184;-79
2023/01/16 09:39:15;;;;;;;11.13;6.03;;;;;;;6.27;nan;-23991.94;5031697;28;20588;-80
2023/01/16 09:44:54;;;;;;;13.90;6.53;;;;;;;6.50;nan;-23998.47;5033416;28;20234;-79
2023/01/16 09:47:24;;;;;;;21.23;6.70;;;;;;;6.39;nan;-23995.34;5031602;28;20562;-81
2023/01/16 09:50:01;;;;;;;18.63;8.23;;;;;;;6.43;nan;-23996.50;5031273;28;20213;-80
2023/01/16 09:58:35;;;;;;;20.87;7.17;;;;;;;6.73;nan;-24004.88;5031638;28;20306;-79
2023/01/16 10:01:02;;;;;;;15.37;7.50;;;;;;;6.84;nan;-24007.84;5031100;28;20233;-80
2023/01/16 10:03:28;;;;;;;20.67;7.67;;;;;;;6.33;nan;-23993.66;5032630;28;20757;-81
2023/01/16 10:06:23;;;;;;;23.20;8.80;;;;;;;6.40;nan;-23995.63;5031478;28;20270;-80
2023/01/16 10:08:56;;;;;;;17.03;7.43;;;;;;;6.28;nan;-23992.09;5032274;28;20199;-80
2023/01/16 10:11:37;;;;;;;17.60;8.50;;;;;;;6.38;nan;-23994.94;5031856;28;20171;-80
2023/01/16 10:14:11;;;;;;;14.60;6.83;;;;;;;6.53;nan;-23999.31;5032288;28;20175;-80
2023/01/16 10:16:44;;;;;;;12.37;5.43;;;;;;;6.66;nan;-24003.00;5032190;28;20171;-79
2023/01/16 10:19:27;;;;;;;19.23;7.47;;;;;;;6.66;nan;-24002.88;5030722;28;20560;-80
2023/01/16 10:22:17;;;;;;;14.57;6.67;;;;;;;7.10;nan;-24015.22;5032760;28;20262;-81
2023/01/16 10:25:20;;;;;;;16.60;7.37;;;;;;;7.50;nan;-24026.41;5032129;28;20172;-79
2023/01/16 10:28:04;;;;;;;13.50;8.00;;;;;;;7.59;nan;-24028.97;4974005;28;20216;-80
2023/01/16 10:30:37;;;;;;;14.93;6.40;;;;;;;7.03;nan;-24013.22;4974258;28;20180;-81
2023/01/16 10:33:09;;;;;;;13.90;6.20;;;;;;;7.13;nan;-24015.94;5025045;28;20205;-80
2023/01/16 10:35:43;;;;;;;10.80;5.60;;;;;;;6.70;nan;-24003.88;5030211;28;20210;-79
2023/01/16 10:38:20;;;;;;;9.70;5.63;;;;;;;7.22;nan;-24018.47;5032100;28;20167;-80
2023/01/16 10:40:48;;;;;;;15.20;6.53;;;;;;;7.07;nan;-24014.50;5031701;28;20175;-79
2023/01/16 10:49:26;;;;;;;9.47;5.47;;;;;;;6.72;nan;-24004.56;5031376;28;20279;-80
2023/01/16 10:51:52;;;;;;;11.57;5.83;;;;;;;7.26;nan;-24019.63;5031574;28;20164;-81
2023/01/16 10:54:17;;;;;;;11.80;6.80;;;;;;;6.94;nan;-24010.81;5030357;28;20184;-80
2023/01/16 10:56:43;;;;;;;14.20;6.00;;;;;;;7.27;nan;-24019.91;5030319;28;20581;-80
2023/01/16 10:59:11;;;;;;;11.63;6.20;;;;;;;7.35;nan;-24022.31;5032519;28;20179;-78
2023/01/16 11:01:39;;;;;;;13.50;7.17;;;;;;;6.87;nan;-24008.69;5031452;28;20179;-79
2023/01/16 11:04:09;;;;;;;10.43;6.13;;;;;;;7.27;nan;-24019.91;5030649;28;20211;-79
2023/01/16 11:06:36;;;;;;;9.53;4.80;;;;;;;6.89;nan;-24009.41;5030561;28;20179;-80
2023/01/16 11:09:04;;;;;;;17.83;5.67;;;;;;;6.86;nan;-24008.56;5031248;28;20269;-81
2023/01/16 11:20:02;;;;;;;16.77;6.53;;;;;;;6.65;nan;-24002.59;5032785;28;20664;-80
2023/01/16 11:22:28;;;;;;;16.73;6.30;;;;;;;6.82;nan;-24007.28;5034936;28;20183;-80
2023/01/16 11:25:00;;;;;;;15.70;6.97;;;;;;;7.15;nan;-24016.50;5033966;28;20657;-81
2023/01/16 11:27:31;;;;;;;16.70;7.97;;;;;;;7.24;nan;-24019.03;5036528;28;20163;-79
2023/01/16 11:29:57;;;;;;;15.47;7.57;;;;;;;7.38;nan;-24023.16;5035864;28;20178;-81
2023/01/16 11:32:27;;;;;;;11.97;6.70;;;;;;;7.55;nan;-24027.84;5036294;28;20176;-80
2023/01/16 11:34:57;;;;;;;15.50;8.10;;;;;;;7.50;nan;-24026.56;5034323;28;20167;-77
2023/01/16 11:37:26;;;;;;;14.70;6.60;;;;;;;7.22;nan;-24018.63;5034935;28;20175;-82
2023/01/16 11:39:54;;;;;;;13.73;6.57;;;;;;;6.89;nan;-24009.41;5033700;28;20186;-82
2023/01/16 11:48:23;;;;;;;11.47;5.77;;;;;;;6.96;nan;-24011.38;5034230;28;20278;-80
2023/01/16 11:50:51;;;;;;;10.20;5.37;;;;;;;6.57;nan;-24000.47;5038679;28;20657;-80
2023/01/16 11:53:17;;;;;;;16.10;6.57;;;;;;;6.56;nan;-24000.19;5053308;28;20185;-79
2023/01/16 11:56:10;;;;;;;17.50;6.83;;;;;;;6.92;nan;-24010.25;5055290;28;20171;-80
2023/01/16 11:59:14;;;;;;;12.07;6.27;;;;;;;6.89;nan;-24009.41;5037160;28;20209;-80
2023/01/16 12:05:53;;;;;;;11.07;7.30;;;;;;;6.55;nan;-23999.91;5035411;28;20661;-81
2023/01/16 12:07:49;;;;;;;18.17;7.30;;;;;;;6.40;nan;-23995.63;5033103;28;20693;-80
2023/01/16 12:10:31;;;;;;;14.30;6.00;;;;;;;6.66;nan;-24002.88;5033813;28;20642;-79
2023/01/16 12:16:29;;;;;;;10.97;5.43;;;;;;;6.67;nan;-24003.16;5033816;28;20171;-80
2023/01/16 12:19:26;;;;;;;13.17;6.97;;;;;;;6.41;nan;-23995.78;5032362;28;20179;-81
2023/01/16 12:22:14;;;;;;;6.97;4.60;;;;;;;6.61;nan;-24001.47;5033577;28;20175;-80
2023/01/16 12:25:17;;;;;;;12.30;5.83;;;;;;;6.69;nan;-24003.59;5004542;28;20276;-80
2023/01/16 12:27:58;;;;;;;10.77;6.00;;;;;;;6.59;nan;-24001.03;5033636;28;20223;-81
2023/01/16 12:30:58;;;;;;;12.60;6.33;;;;;;;6.36;nan;-23994.50;5032124;28;20180;-81
2023/01/16 12:33:29;;;;;;;16.33;6.73;;;;;;;6.87;nan;-24008.84;5031001;28;20585;-81
2023/01/16 12:36:16;;;;;;;13.43;6.47;;;;;;;6.72;nan;-24004.56;5032219;28;20175;-81
2023/01/16 12:38:50;;;;;;;12.77;6.30;;;;;;;6.80;nan;-24006.84;5031703;28;20198;-79
2023/01/16 12:44:41;;;;;;;16.27;6.43;;;;;;;7.04;nan;-24013.66;5033204;28;20225;-76
2023/01/16 12:47:22;;;;;;;11.07;5.97;;;;;;;7.08;nan;-24014.78;5033218;28;20183;-75
2023/01/16 12:50:00;;;;;;;13.97;6.60;;;;;;;7.40;nan;-24023.59;5033532;28;20797;-78
2023/01/16 12:52:46;;;;;;;11.47;6.30;;;;;;;7.57;nan;-24028.25;5033634;28;20210;-79
2023/01/16 12:55:35;;;;;;;14.57;7.03;;;;;;;7.45;nan;-24025.00;5033598;28;20171;-78
2023/01/16 12:58:22;;;;;;;11.53;6.00;;;;;;;7.36;nan;-24022.44;5033236;28;20176;-77
2023/01/16 13:01:07;;;;;;;9.87;5.40;;;;;;;7.61;nan;-24029.53;5032749;28;20175;-80
2023/01/16 13:03:44;;;;;;;12.30;6.10;;;;;;;7.62;nan;-24029.69;5032700;28;20230;-82
2023/01/16 13:06:17;;;;;;;9.80;5.97;;;;;;;7.20;nan;-24018.06;5033160;28;20564;-82